Iwami current weather conditions

sailwx.info

Wind from 300 at 9 knots

Air temperature 4.0° C
Visibility: greater than 5.4 NM
Dewpoint -5.0° C

Last reported at 2017-Jan-24 10:00 UTC.
Time now 2017-Jan-24 19:26 UTC

Location: N 34°41' E 131°47'.
View on Google Maps.

See reports from other nearby stations

  
Tides and Currents Weather Stations Pressure Air Temp Water Temp Dewpoint Dewpoint Depression Visibility Wind Speed Wind Dir Waves Ship Positions
date/time (UTC)wind fromknots sea level pressurealtimeterstation pressurevisibilityair tempwater tempwave heightnotes
2017-Jan-24 10:00 300 9 5.4 4.0
2017-Jan-24 09:00 290 9 5.4 4.0
2017-Jan-24 08:00 310 9 5.4 4.0
2017-Jan-24 07:00 300 12 5.4 4.0
2017-Jan-24 06:00 300 13 5.4 5.0
2017-Jan-24 05:00 300 13 5.4 4.0 Light snow showers.
2017-Jan-24 04:00 310 12 5.4 4.0 Light snow showers.
2017-Jan-24 03:00 300 12 5.4 5.0 Showers in the vicinity.
2017-Jan-24 02:00 250 6 5.4 3.0 Light snow showers.
2017-Jan-24 01:00 310 17 gusting 27 4.9 3.0 Light snow showers.
2017-Jan-24 00:00 320 11 gusting 20 5.4 3.0 Light snow showers.
2017-Jan-23 23:00 310 7 gusting 18 5.4 3.0 Light snow showers.
2017-Jan-23 10:00 290 17 5.4 3.0 Light snow showers.
2017-Jan-23 09:00 300 14 5.4 3.0 Showers in the vicinity.
2017-Jan-23 08:00 290 14 4.9 3.0 Light snow showers.
2017-Jan-23 07:00 280 17 5.4 3.0 Light snow showers.
2017-Jan-23 06:00 280 17 5.4 3.0 Light snow showers.
2017-Jan-23 05:00 290 15 5.4 3.0
2017-Jan-23 04:00 290 17 5.4 3.0 Light snow showers.
2017-Jan-23 03:00 280 14 5.4 3.0 Light snow showers.
2017-Jan-23 02:29 250 7 3.8 1.0 Light snow showers.
2017-Jan-23 02:12 290 17 1.1 1.0 Light snow showers.
2017-Jan-23 02:00 300 18 4.3 2.0 Light snow showers.
2017-Jan-23 01:45 280 12 gusting 22 3.8-0.0 Light snow showers.
2017-Jan-23 01:34 280 19 0.8-0.0 Light snow showers.
2017-Jan-23 01:00 260 14 5.4 2.0 Light snow showers.
2017-Jan-23 00:00 300 13 gusting 24 4.3 1.0 Light snow showers.
2017-Jan-22 23:00 300 18 gusting 28 3.8-0.0 Light snow showers.